Terminal Aerodrome Forecast
Issued by NWS Twin Cities, MN

Home | Current Version | Previous Version | Graphics & Text | Print | Product List | Glossary On
Versions: 1 2 3 4 5 6 7 8 9 10 11 12 13 14 15 16 17 18
000
FTUS43 KMPX 211100
TAFEAU
TAF
KEAU 211140Z 2112/2212 15008KT 4SM BR OVC008
     FM211700 15011KT 4SM -SN BR OVC005
     FM212200 15012KT 6SM BR OVC010
     FM220200 14013KT 5SM BR OVC008=

USA.gov is the U.S. government's official web portal to all federal, state and local government web resources and services.